sensor_id;sensor_type;location;lat;lon;timestamp;pressure;altitude;pressure_sealevel;temperature;humidity
28588;BME280;15787;49.662;10.162;2023-01-31T00:01:45;99801.09;;;1.95;100.00
28588;BME280;15787;49.662;10.162;2023-01-31T00:04:19;99799.97;;;1.96;100.00
28588;BME280;15787;49.662;10.162;2023-01-31T00:06:52;99800.66;;;1.92;100.00
28588;BME280;15787;49.662;10.162;2023-01-31T00:09:25;99802.50;;;2.04;100.00
28588;BME280;15787;49.662;10.162;2023-01-31T00:11:58;99802.72;;;1.96;100.00
28588;BME280;15787;49.662;10.162;2023-01-31T00:14:30;99804.56;;;2.07;100.00
28588;BME280;15787;49.662;10.162;2023-01-31T00:17:03;99799.75;;;2.04;100.00
28588;BME280;15787;49.662;10.162;2023-01-31T00:19:37;99812.41;;;2.05;100.00
28588;BME280;15787;49.662;10.162;2023-01-31T00:22:10;99814.34;;;2.05;100.00
28588;BME280;15787;49.662;10.162;2023-01-31T00:24:43;99823.47;;;2.09;100.00
28588;BME280;15787;49.662;10.162;2023-01-31T00:27:16;99829.00;;;2.09;100.00
28588;BME280;15787;49.662;10.162;2023-01-31T00:29:50;99831.56;;;2.02;100.00
28588;BME280;15787;49.662;10.162;2023-01-31T00:32:23;99837.72;;;2.11;100.00
28588;BME280;15787;49.662;10.162;2023-01-31T00:34:58;99842.88;;;2.12;100.00
28588;BME280;15787;49.662;10.162;2023-01-31T00:37:31;99843.56;;;2.25;100.00
28588;BME280;15787;49.662;10.162;2023-01-31T00:40:05;99839.31;;;2.27;100.00
28588;BME280;15787;49.662;10.162;2023-01-31T00:42:38;99846.59;;;2.35;100.00
28588;BME280;15787;49.662;10.162;2023-01-31T00:45:14;99853.28;;;2.03;100.00
28588;BME280;15787;49.662;10.162;2023-01-31T00:47:46;99859.75;;;2.11;100.00
28588;BME280;15787;49.662;10.162;2023-01-31T00:50:20;99865.97;;;2.39;100.00
28588;BME280;15787;49.662;10.162;2023-01-31T00:52:53;99864.75;;;2.36;100.00
28588;BME280;15787;49.662;10.162;2023-01-31T00:55:29;99860.91;;;2.41;100.00
28588;BME280;15787;49.662;10.162;2023-01-31T00:58:02;99859.50;;;2.31;100.00
28588;BME280;15787;49.662;10.162;2023-01-31T01:00:35;99857.44;;;2.13;100.00
28588;BME280;15787;49.662;10.162;2023-01-31T01:03:08;99849.09;;;2.25;100.00
28588;BME280;15787;49.662;10.162;2023-01-31T01:05:42;99844.22;;;2.03;100.00
28588;BME280;15787;49.662;10.162;2023-01-31T01:08:15;99847.22;;;1.82;100.00
28588;BME280;15787;49.662;10.162;2023-01-31T01:10:48;99840.19;;;1.84;100.00
28588;BME280;15787;49.662;10.162;2023-01-31T01:13:21;99849.78;;;1.75;100.00
28588;BME280;15787;49.662;10.162;2023-01-31T01:15:54;99849.78;;;1.75;100.00
28588;BME280;15787;49.662;10.162;2023-01-31T01:18:27;99847.03;;;1.90;100.00
28588;BME280;15787;49.662;10.162;2023-01-31T01:21:06;99851.91;;;1.81;100.00
28588;BME280;15787;49.662;10.162;2023-01-31T01:23:41;99861.94;;;1.74;100.00
28588;BME280;15787;49.662;10.162;2023-01-31T01:26:15;99864.97;;;1.84;100.00
28588;BME280;15787;49.662;10.162;2023-01-31T01:28:50;99862.47;;;1.79;100.00
28588;BME280;15787;49.662;10.162;2023-01-31T01:31:23;99866.75;;;1.77;100.00
28588;BME280;15787;49.662;10.162;2023-01-31T01:34:03;99861.59;;;1.91;100.00
28588;BME280;15787;49.662;10.162;2023-01-31T01:36:39;99854.84;;;2.04;100.00
28588;BME280;15787;49.662;10.162;2023-01-31T01:39:12;99850.31;;;1.80;100.00
28588;BME280;15787;49.662;10.162;2023-01-31T01:41:46;99854.34;;;1.55;100.00
28588;BME280;15787;49.662;10.162;2023-01-31T01:44:43;99831.72;;;1.62;100.00
28588;BME280;15787;49.662;10.162;2023-01-31T01:47:25;99832.97;;;1.64;100.00
28588;BME280;15787;49.662;10.162;2023-01-31T01:50:07;99832.97;;;1.64;100.00
28588;BME280;15787;49.662;10.162;2023-01-31T01:52:45;99831.03;;;1.65;100.00
28588;BME280;15787;49.662;10.162;2023-01-31T01:55:22;99823.06;;;1.75;100.00
28588;BME280;15787;49.662;10.162;2023-01-31T01:58:01;99830.41;;;1.71;100.00
28588;BME280;15787;49.662;10.162;2023-01-31T02:00:36;99826.13;;;1.74;100.00
28588;BME280;15787;49.662;10.162;2023-01-31T02:03:09;99839.22;;;1.77;100.00
28588;BME280;15787;49.662;10.162;2023-01-31T02:05:45;99836.91;;;1.79;100.00
28588;BME280;15787;49.662;10.162;2023-01-31T02:08:22;99840.56;;;1.83;100.00
28588;BME280;15787;49.662;10.162;2023-01-31T02:10:58;99846.66;;;1.76;100.00
28588;BME280;15787;49.662;10.162;2023-01-31T02:13:34;99858.22;;;1.82;100.00
28588;BME280;15787;49.662;10.162;2023-01-31T02:16:07;99856.72;;;1.84;100.00
28588;BME280;15787;49.662;10.162;2023-01-31T02:18:41;99865.25;;;1.95;100.00
28588;BME280;15787;49.662;10.162;2023-01-31T02:27:53;99895.38;;;1.88;100.00
28588;BME280;15787;49.662;10.162;2023-01-31T02:33:35;99897.78;;;2.05;100.00
28588;BME280;15787;49.662;10.162;2023-01-31T02:36:21;99911.41;;;1.86;100.00
28588;BME280;15787;49.662;10.162;2023-01-31T02:39:05;99890.03;;;1.95;100.00
28588;BME280;15787;49.662;10.162;2023-01-31T02:41:47;99894.31;;;1.92;100.00
28588;BME280;15787;49.662;10.162;2023-01-31T02:44:27;99886.59;;;2.14;100.00
28588;BME280;15787;49.662;10.162;2023-01-31T02:47:30;99892.09;;;1.98;100.00
28588;BME280;15787;49.662;10.162;2023-01-31T02:50:11;99895.09;;;2.09;100.00
28588;BME280;15787;49.662;10.162;2023-01-31T02:52:51;99885.44;;;2.15;100.00
28588;BME280;15787;49.662;10.162;2023-01-31T02:55:29;99893.47;;;1.76;100.00
28588;BME280;15787;49.662;10.162;2023-01-31T02:58:26;99893.25;;;1.97;100.00
28588;BME280;15787;49.662;10.162;2023-01-31T03:01:01;99895.88;;;1.93;100.00
28588;BME280;15787;49.662;10.162;2023-01-31T03:03:37;99906.91;;;1.93;100.00
28588;BME280;15787;49.662;10.162;2023-01-31T03:06:43;99908.22;;;1.84;100.00
28588;BME280;15787;49.662;10.162;2023-01-31T03:09:35;99920.19;;;1.76;100.00
28588;BME280;15787;49.662;10.162;2023-01-31T03:12:30;99917.94;;;1.66;100.00
28588;BME280;15787;49.662;10.162;2023-01-31T03:15:14;99923.69;;;1.61;100.00
28588;BME280;15787;49.662;10.162;2023-01-31T03:17:57;99925.13;;;1.82;100.00
28588;BME280;15787;49.662;10.162;2023-01-31T03:20:33;99923.81;;;1.64;100.00
28588;BME280;15787;49.662;10.162;2023-01-31T03:23:16;99924.69;;;1.80;100.00
28588;BME280;15787;49.662;10.162;2023-01-31T03:25:52;99935.63;;;1.92;100.00
28588;BME280;15787;49.662;10.162;2023-01-31T03:28:29;99934.88;;;1.80;100.00
28588;BME280;15787;49.662;10.162;2023-01-31T03:31:06;99944.13;;;1.87;100.00
28588;BME280;15787;49.662;10.162;2023-01-31T03:33:44;99939.69;;;1.99;100.00
28588;BME280;15787;49.662;10.162;2023-01-31T03:36:27;99945.53;;;1.81;100.00
28588;BME280;15787;49.662;10.162;2023-01-31T03:39:13;99934.47;;;1.66;100.00
28588;BME280;15787;49.662;10.162;2023-01-31T03:41:54;99940.19;;;1.73;100.00
28588;BME280;15787;49.662;10.162;2023-01-31T03:44:35;99944.38;;;1.55;100.00
28588;BME280;15787;49.662;10.162;2023-01-31T03:47:16;99941.13;;;1.65;100.00
28588;BME280;15787;49.662;10.162;2023-01-31T03:49:51;99945.41;;;1.50;100.00
28588;BME280;15787;49.662;10.162;2023-01-31T03:52:30;99958.19;;;1.70;100.00
28588;BME280;15787;49.662;10.162;2023-01-31T03:55:10;99962.94;;;1.58;100.00
28588;BME280;15787;49.662;10.162;2023-01-31T03:57:50;99960.09;;;1.54;100.00
28588;BME280;15787;49.662;10.162;2023-01-31T04:00:24;99956.97;;;1.56;100.00
28588;BME280;15787;49.662;10.162;2023-01-31T04:03:09;99966.94;;;1.60;100.00
28588;BME280;15787;49.662;10.162;2023-01-31T04:05:45;99975.94;;;1.85;100.00
28588;BME280;15787;49.662;10.162;2023-01-31T04:08:20;99979.03;;;1.83;100.00
28588;BME280;15787;49.662;10.162;2023-01-31T04:11:05;99979.31;;;1.66;100.00
28588;BME280;15787;49.662;10.162;2023-01-31T04:13:41;99975.13;;;1.57;100.00
28588;BME280;15787;49.662;10.162;2023-01-31T04:16:14;99973.63;;;1.87;100.00
28588;BME280;15787;49.662;10.162;2023-01-31T04:18:47;99969.81;;;1.91;100.00
28588;BME280;15787;49.662;10.162;2023-01-31T04:21:20;99975.50;;;1.99;100.00
28588;BME280;15787;49.662;10.162;2023-01-31T04:23:53;99982.84;;;1.79;100.00
28588;BME280;15787;49.662;10.162;2023-01-31T04:26:27;99976.88;;;1.77;100.00
28588;BME280;15787;49.662;10.162;2023-01-31T04:29:00;99968.38;;;1.82;100.00
28588;BME280;15787;49.662;10.162;2023-01-31T04:31:34;99963.50;;;1.91;100.00
28588;BME280;15787;49.662;10.162;2023-01-31T04:34:07;99944.22;;;1.91;100.00
28588;BME280;15787;49.662;10.162;2023-01-31T04:36:41;99956.44;;;2.06;100.00
28588;BME280;15787;49.662;10.162;2023-01-31T04:39:13;99956.03;;;1.91;100.00
28588;BME280;15787;49.662;10.162;2023-01-31T04:41:48;99957.91;;;1.87;100.00
28588;BME280;15787;49.662;10.162;2023-01-31T04:44:21;99962.94;;;2.13;100.00
28588;BME280;15787;49.662;10.162;2023-01-31T04:46:54;99964.09;;;1.84;100.00
28588;BME280;15787;49.662;10.162;2023-01-31T04:49:27;99954.47;;;1.90;100.00
28588;BME280;15787;49.662;10.162;2023-01-31T04:52:00;99958.78;;;1.91;100.00
28588;BME280;15787;49.662;10.162;2023-01-31T04:54:33;99958.50;;;1.81;100.00
28588;BME280;15787;49.662;10.162;2023-01-31T04:57:08;99960.75;;;1.91;100.00
28588;BME280;15787;49.662;10.162;2023-01-31T04:59:41;99956.28;;;1.86;100.00
28588;BME280;15787;49.662;10.162;2023-01-31T05:02:14;99957.72;;;1.96;100.00
28588;BME280;15787;49.662;10.162;2023-01-31T05:04:48;99955.91;;;2.00;100.00
28588;BME280;15787;49.662;10.162;2023-01-31T05:07:21;99952.72;;;1.86;100.00
28588;BME280;15787;49.662;10.162;2023-01-31T05:09:54;99945.31;;;2.02;100.00
28588;BME280;15787;49.662;10.162;2023-01-31T05:12:28;99941.88;;;2.05;100.00
28588;BME280;15787;49.662;10.162;2023-01-31T05:15:02;99938.22;;;2.17;100.00
28588;BME280;15787;49.662;10.162;2023-01-31T05:17:37;99939.44;;;2.04;100.00
28588;BME280;15787;49.662;10.162;2023-01-31T05:20:10;99944.97;;;2.19;100.00
28588;BME280;15787;49.662;10.162;2023-01-31T05:22:45;99941.44;;;2.03;100.00
28588;BME280;15787;49.662;10.162;2023-01-31T05:25:18;99942.38;;;1.95;100.00
28588;BME280;15787;49.662;10.162;2023-01-31T05:27:53;99939.63;;;1.95;100.00
28588;BME280;15787;49.662;10.162;2023-01-31T05:30:26;99944.13;;;1.87;100.00
28588;BME280;15787;49.662;10.162;2023-01-31T05:32:59;99943.97;;;1.96;100.00
28588;BME280;15787;49.662;10.162;2023-01-31T05:35:32;99942.53;;;1.86;100.00
28588;BME280;15787;49.662;10.162;2023-01-31T05:38:05;99940.31;;;1.92;100.00
28588;BME280;15787;49.662;10.162;2023-01-31T05:40:38;99949.09;;;1.82;100.00
28588;BME280;15787;49.662;10.162;2023-01-31T05:43:12;99942.81;;;1.97;100.00
28588;BME280;15787;49.662;10.162;2023-01-31T05:45:46;99951.41;;;1.80;100.00
28588;BME280;15787;49.662;10.162;2023-01-31T05:48:20;99954.75;;;1.73;100.00
28588;BME280;15787;49.662;10.162;2023-01-31T05:50:53;99965.66;;;1.70;100.00
28588;BME280;15787;49.662;10.162;2023-01-31T05:53:26;99957.28;;;1.66;100.00
28588;BME280;15787;49.662;10.162;2023-01-31T05:55:59;99956.16;;;1.67;100.00
28588;BME280;15787;49.662;10.162;2023-01-31T05:58:33;99959.00;;;1.71;100.00
28588;BME280;15787;49.662;10.162;2023-01-31T06:01:06;99959.41;;;1.57;100.00
28588;BME280;15787;49.662;10.162;2023-01-31T06:03:39;99952.16;;;1.65;100.00
28588;BME280;15787;49.662;10.162;2023-01-31T06:06:12;99950.97;;;1.66;100.00
28588;BME280;15787;49.662;10.162;2023-01-31T06:08:45;99951.69;;;1.63;100.00
28588;BME280;15787;49.662;10.162;2023-01-31T06:11:18;99950.72;;;1.71;100.00
28588;BME280;15787;49.662;10.162;2023-01-31T06:13:55;99951.22;;;1.73;100.00
28588;BME280;15787;49.662;10.162;2023-01-31T06:16:29;99958.50;;;1.81;100.00
28588;BME280;15787;49.662;10.162;2023-01-31T06:19:02;99958.50;;;1.81;100.00
28588;BME280;15787;49.662;10.162;2023-01-31T06:21:35;99961.97;;;1.78;100.00
28588;BME280;15787;49.662;10.162;2023-01-31T06:24:08;99958.31;;;1.74;100.00
28588;BME280;15787;49.662;10.162;2023-01-31T06:26:41;99962.22;;;1.73;100.00
28588;BME280;15787;49.662;10.162;2023-01-31T06:29:15;99968.50;;;1.73;100.00
28588;BME280;15787;49.662;10.162;2023-01-31T06:31:48;99963.31;;;1.84;100.00
28588;BME280;15787;49.662;10.162;2023-01-31T06:34:21;99952.97;;;1.81;100.00
28588;BME280;15787;49.662;10.162;2023-01-31T06:36:54;99965.38;;;1.87;100.00
28588;BME280;15787;49.662;10.162;2023-01-31T06:39:27;99964.41;;;1.67;100.00
28588;BME280;15787;49.662;10.162;2023-01-31T06:42:01;99964.75;;;1.66;100.00
28588;BME280;15787;49.662;10.162;2023-01-31T06:44:35;99967.63;;;1.69;100.00
28588;BME280;15787;49.662;10.162;2023-01-31T06:47:08;99954.19;;;1.68;100.00
28588;BME280;15787;49.662;10.162;2023-01-31T06:49:41;99958.50;;;1.81;100.00
28588;BME280;15787;49.662;10.162;2023-01-31T06:52:14;99954.44;;;1.63;100.00
28588;BME280;15787;49.662;10.162;2023-01-31T06:54:47;99957.19;;;1.63;100.00
28588;BME280;15787;49.662;10.162;2023-01-31T06:57:20;99950.97;;;1.66;100.00
28588;BME280;15787;49.662;10.162;2023-01-31T06:59:54;99947.34;;;1.62;100.00
28588;BME280;15787;49.662;10.162;2023-01-31T07:02:27;99961.94;;;1.50;100.00
28588;BME280;15787;49.662;10.162;2023-01-31T07:05:00;99958.97;;;1.43;100.00
28588;BME280;15787;49.662;10.162;2023-01-31T07:07:33;99972.16;;;1.50;100.00
28588;BME280;15787;49.662;10.162;2023-01-31T07:10:07;99966.66;;;1.50;100.00
28588;BME280;15787;49.662;10.162;2023-01-31T07:12:40;99972.94;;;1.50;100.00
28588;BME280;15787;49.662;10.162;2023-01-31T07:15:14;99982.44;;;1.53;100.00
28588;BME280;15787;49.662;10.162;2023-01-31T07:17:47;99989.78;;;1.61;100.00
28588;BME280;15787;49.662;10.162;2023-01-31T07:20:19;99992.63;;;1.64;100.00
28588;BME280;15787;49.662;10.162;2023-01-31T07:22:53;99985.44;;;1.60;100.00
28588;BME280;15787;49.662;10.162;2023-01-31T07:25:27;99992.56;;;1.49;100.00
28588;BME280;15787;49.662;10.162;2023-01-31T07:28:03;99992.16;;;1.74;100.00
28588;BME280;15787;49.662;10.162;2023-01-31T07:30:37;99999.66;;;1.62;100.00
28588;BME280;15787;49.662;10.162;2023-01-31T07:33:14;99998.47;;;1.63;100.00
28588;BME280;15787;49.662;10.162;2023-01-31T07:35:47;99995.69;;;1.47;100.00
28588;BME280;15787;49.662;10.162;2023-01-31T07:38:20;99996.00;;;1.46;100.00
28588;BME280;15787;49.662;10.162;2023-01-31T07:40:52;99998.22;;;1.68;100.00
28588;BME280;15787;49.662;10.162;2023-01-31T07:43:26;99988.03;;;1.68;100.00
28588;BME280;15787;49.662;10.162;2023-01-31T07:46:00;99984.25;;;1.61;100.00
28588;BME280;15787;49.662;10.162;2023-01-31T07:48:33;99980.19;;;1.55;100.00
28588;BME280;15787;49.662;10.162;2023-01-31T07:51:07;99993.19;;;1.70;100.00
28588;BME280;15787;49.662;10.162;2023-01-31T07:53:40;100004.22;;;1.70;100.00
28588;BME280;15787;49.662;10.162;2023-01-31T07:56:16;100006.59;;;1.71;100.00
28588;BME280;15787;49.662;10.162;2023-01-31T07:58:49;100010.22;;;1.60;100.00
28588;BME280;15787;49.662;10.162;2023-01-31T08:01:25;100014.06;;;1.71;100.00
28588;BME280;15787;49.662;10.162;2023-01-31T08:04:16;100019.47;;;1.67;100.00
28588;BME280;15787;49.662;10.162;2023-01-31T08:06:54;100030.56;;;1.83;100.00
28588;BME280;15787;49.662;10.162;2023-01-31T08:09:27;100033.56;;;1.78;100.00
28588;BME280;15787;49.662;10.162;2023-01-31T08:12:01;100040.72;;;1.95;100.00
28588;BME280;15787;49.662;10.162;2023-01-31T08:14:34;100037.34;;;2.01;100.00
28588;BME280;15787;49.662;10.162;2023-01-31T08:17:08;100030.72;;;2.02;100.00
28588;BME280;15787;49.662;10.162;2023-01-31T08:19:41;100045.03;;;2.08;100.00
28588;BME280;15787;49.662;10.162;2023-01-31T08:22:14;100040.13;;;2.01;100.00
28588;BME280;15787;49.662;10.162;2023-01-31T08:24:47;100029.56;;;2.03;100.00
28588;BME280;15787;49.662;10.162;2023-01-31T08:27:20;100036.28;;;1.90;100.00
28588;BME280;15787;49.662;10.162;2023-01-31T08:29:54;100023.38;;;1.94;100.00
28588;BME280;15787;49.662;10.162;2023-01-31T08:32:28;100023.00;;;2.08;100.00
28588;BME280;15787;49.662;10.162;2023-01-31T08:35:01;100018.06;;;2.01;100.00
28588;BME280;15787;49.662;10.162;2023-01-31T08:37:34;100017.69;;;2.15;100.00
28588;BME280;15787;49.662;10.162;2023-01-31T08:40:08;100007.09;;;2.17;100.00
28588;BME280;15787;49.662;10.162;2023-01-31T08:42:41;99998.69;;;2.25;100.00
28588;BME280;15787;49.662;10.162;2023-01-31T08:45:14;100003.84;;;2.27;100.00
28588;BME280;15787;49.662;10.162;2023-01-31T08:47:52;99990.25;;;2.18;100.00
28588;BME280;15787;49.662;10.162;2023-01-31T08:50:26;100001.63;;;2.32;100.00
28588;BME280;15787;49.662;10.162;2023-01-31T08:53:01;99998.53;;;2.34;100.00
28588;BME280;15787;49.662;10.162;2023-01-31T08:55:35;100000.25;;;2.54;100.00
28588;BME280;15787;49.662;10.162;2023-01-31T08:58:08;99994.81;;;2.58;100.00
28588;BME280;15787;49.662;10.162;2023-01-31T09:00:41;100005.50;;;2.59;100.00
28588;BME280;15787;49.662;10.162;2023-01-31T09:03:15;99997.13;;;2.71;100.00
28588;BME280;15787;49.662;10.162;2023-01-31T09:05:48;100006.66;;;2.58;100.00
28588;BME280;15787;49.662;10.162;2023-01-31T09:08:21;100011.53;;;2.65;100.00
28588;BME280;15787;49.662;10.162;2023-01-31T09:10:54;100012.78;;;2.51;100.00
28588;BME280;15787;49.662;10.162;2023-01-31T09:13:28;100018.28;;;2.67;100.00
28588;BME280;15787;49.662;10.162;2023-01-31T09:16:03;100009.59;;;2.65;100.00
28588;BME280;15787;49.662;10.162;2023-01-31T09:18:41;100010.03;;;2.67;100.00
28588;BME280;15787;49.662;10.162;2023-01-31T09:21:16;100013.59;;;2.68;100.00
28588;BME280;15787;49.662;10.162;2023-01-31T09:23:53;100004.06;;;2.65;100.00
28588;BME280;15787;49.662;10.162;2023-01-31T09:26:27;99993.91;;;2.85;100.00
28588;BME280;15787;49.662;10.162;2023-01-31T09:29:00;99997.75;;;2.80;100.00
28588;BME280;15787;49.662;10.162;2023-01-31T09:31:33;100001.16;;;2.74;100.00
28588;BME280;15787;49.662;10.162;2023-01-31T09:34:07;100007.38;;;2.71;100.00
28588;BME280;15787;49.662;10.162;2023-01-31T09:36:40;99992.66;;;2.82;100.00
28588;BME280;15787;49.662;10.162;2023-01-31T09:39:13;99991.91;;;2.82;100.00
28588;BME280;15787;49.662;10.162;2023-01-31T09:41:49;99979.53;;;2.76;100.00
28588;BME280;15787;49.662;10.162;2023-01-31T09:44:27;99975.88;;;2.72;100.00
28588;BME280;15787;49.662;10.162;2023-01-31T09:47:06;99984.94;;;2.88;100.00
28588;BME280;15787;49.662;10.162;2023-01-31T09:49:45;100005.41;;;2.87;100.00
28588;BME280;15787;49.662;10.162;2023-01-31T09:52:20;100013.22;;;2.85;100.00
28588;BME280;15787;49.662;10.162;2023-01-31T09:54:54;100013.97;;;2.97;100.00
28588;BME280;15787;49.662;10.162;2023-01-31T09:57:36;100017.16;;;2.99;100.00
28588;BME280;15787;49.662;10.162;2023-01-31T10:00:18;99999.97;;;2.90;100.00
28588;BME280;15787;49.662;10.162;2023-01-31T10:03:31;99980.75;;;2.94;100.00
28588;BME280;15787;49.662;10.162;2023-01-31T10:06:16;99968.75;;;3.02;100.00
28588;BME280;15787;49.662;10.162;2023-01-31T10:08:56;99973.59;;;3.08;100.00
28588;BME280;15787;49.662;10.162;2023-01-31T10:11:34;99990.97;;;3.09;100.00
28588;BME280;15787;49.662;10.162;2023-01-31T10:14:19;99997.03;;;3.14;100.00
28588;BME280;15787;49.662;10.162;2023-01-31T10:16:59;100000.31;;;3.20;100.00
28588;BME280;15787;49.662;10.162;2023-01-31T10:19:39;99992.50;;;3.06;100.00
28588;BME280;15787;49.662;10.162;2023-01-31T10:22:19;99998.88;;;3.10;100.00
28588;BME280;15787;49.662;10.162;2023-01-31T10:24:57;99987.94;;;2.98;100.00
28588;BME280;15787;49.662;10.162;2023-01-31T10:27:41;99988.03;;;3.17;100.00
28588;BME280;15787;49.662;10.162;2023-01-31T10:30:20;99990.06;;;3.74;100.00
28588;BME280;15787;49.662;10.162;2023-01-31T10:32:58;99982.34;;;4.03;99.18
28588;BME280;15787;49.662;10.162;2023-01-31T10:35:38;99971.72;;;4.05;97.83
28588;BME280;15787;49.662;10.162;2023-01-31T10:38:16;99976.53;;;3.69;97.39
28588;BME280;15787;49.662;10.162;2023-01-31T10:40:55;99965.63;;;3.76;97.00
28588;BME280;15787;49.662;10.162;2023-01-31T10:43:35;99957.19;;;4.08;96.80
28588;BME280;15787;49.662;10.162;2023-01-31T10:46:12;99947.94;;;4.19;96.02
28588;BME280;15787;49.662;10.162;2023-01-31T10:48:46;99945.84;;;4.13;96.11
28588;BME280;15787;49.662;10.162;2023-01-31T10:51:31;99940.41;;;3.97;95.93
28588;BME280;15787;49.662;10.162;2023-01-31T10:54:21;99938.00;;;3.76;96.87
28588;BME280;15787;49.662;10.162;2023-01-31T10:56:58;99950.59;;;3.93;97.80
28588;BME280;15787;49.662;10.162;2023-01-31T10:59:33;99943.69;;;3.83;97.41
28588;BME280;15787;49.662;10.162;2023-01-31T11:02:17;99936.84;;;3.77;97.51
28588;BME280;15787;49.662;10.162;2023-01-31T11:04:51;99935.13;;;3.69;97.13
28588;BME280;15787;49.662;10.162;2023-01-31T11:07:28;99934.97;;;3.62;97.27
28588;BME280;15787;49.662;10.162;2023-01-31T11:10:19;99930.78;;;3.68;97.59
28588;BME280;15787;49.662;10.162;2023-01-31T11:12:55;99934.25;;;3.65;98.34
28588;BME280;15787;49.662;10.162;2023-01-31T11:15:35;99926.91;;;3.35;97.62
28588;BME280;15787;49.662;10.162;2023-01-31T11:18:12;99921.38;;;3.35;98.23
28588;BME280;15787;49.662;10.162;2023-01-31T11:20:46;99902.97;;;3.23;98.01
28588;BME280;15787;49.662;10.162;2023-01-31T11:23:22;99897.91;;;3.25;99.00
28588;BME280;15787;49.662;10.162;2023-01-31T11:25:58;99898.69;;;3.26;99.13
28588;BME280;15787;49.662;10.162;2023-01-31T11:28:34;99880.47;;;3.21;99.57
28588;BME280;15787;49.662;10.162;2023-01-31T11:31:17;99871.38;;;3.20;99.82
28588;BME280;15787;49.662;10.162;2023-01-31T11:33:58;99881.25;;;3.22;99.90
28588;BME280;15787;49.662;10.162;2023-01-31T11:36:40;99865.56;;;3.26;99.66
28588;BME280;15787;49.662;10.162;2023-01-31T11:39:26;99881.50;;;3.32;100.00
28588;BME280;15787;49.662;10.162;2023-01-31T11:42:11;99866.88;;;3.32;99.74
28588;BME280;15787;49.662;10.162;2023-01-31T11:44:55;99857.22;;;3.41;99.67
28588;BME280;15787;49.662;10.162;2023-01-31T11:47:37;99869.16;;;3.45;99.87
28588;BME280;15787;49.662;10.162;2023-01-31T11:50:19;99867.03;;;3.39;99.59
28588;BME280;15787;49.662;10.162;2023-01-31T11:52:54;99857.94;;;3.38;99.32
28588;BME280;15787;49.662;10.162;2023-01-31T11:55:35;99846.13;;;3.38;99.40
28588;BME280;15787;49.662;10.162;2023-01-31T11:58:17;99853.50;;;3.34;99.03
28588;BME280;15787;49.662;10.162;2023-01-31T12:00:53;99849.16;;;3.33;99.15
28588;BME280;15787;49.662;10.162;2023-01-31T12:03:28;99840.44;;;3.31;99.47
28588;BME280;15787;49.662;10.162;2023-01-31T12:06:03;99846.75;;;3.31;99.29
28588;BME280;15787;49.662;10.162;2023-01-31T12:08:38;99836.09;;;3.30;99.07
28588;BME280;15787;49.662;10.162;2023-01-31T12:11:26;99832.16;;;3.31;99.57
28588;BME280;15787;49.662;10.162;2023-01-31T12:14:11;99831.28;;;3.27;99.79
28588;BME280;15787;49.662;10.162;2023-01-31T12:16:46;99828.91;;;3.25;99.60
28588;BME280;15787;49.662;10.162;2023-01-31T12:19:27;99827.72;;;3.26;99.74
28588;BME280;15787;49.662;10.162;2023-01-31T12:22:08;99824.97;;;3.26;99.63
28588;BME280;15787;49.662;10.162;2023-01-31T12:24:52;99825.69;;;3.23;99.59
28588;BME280;15787;49.662;10.162;2023-01-31T12:27:38;99824.09;;;3.22;100.00
28588;BME280;15787;49.662;10.162;2023-01-31T12:30:23;99834.25;;;3.18;100.00
28588;BME280;15787;49.662;10.162;2023-01-31T12:33:21;99838.19;;;3.17;100.00
28588;BME280;15787;49.662;10.162;2023-01-31T12:36:12;99840.16;;;3.16;100.00
28588;BME280;15787;49.662;10.162;2023-01-31T12:38:57;99828.59;;;3.11;100.00
28588;BME280;15787;49.662;10.162;2023-01-31T12:41:38;99830.22;;;3.12;100.00
28588;BME280;15787;49.662;10.162;2023-01-31T12:44:25;99823.97;;;3.15;100.00
28588;BME280;15787;49.662;10.162;2023-01-31T12:47:16;99839.72;;;3.14;100.00
28588;BME280;15787;49.662;10.162;2023-01-31T12:49:59;99827.50;;;3.15;100.00
28588;BME280;15787;49.662;10.162;2023-01-31T12:52:43;99830.63;;;3.14;100.00
28588;BME280;15787;49.662;10.162;2023-01-31T12:55:24;99826.44;;;3.20;100.00
28588;BME280;15787;49.662;10.162;2023-01-31T12:58:14;99829.50;;;3.15;100.00
28588;BME280;15787;49.662;10.162;2023-01-31T13:00:55;99827.88;;;3.14;100.00
28588;BME280;15787;49.662;10.162;2023-01-31T13:03:37;99821.97;;;3.15;100.00
28588;BME280;15787;49.662;10.162;2023-01-31T13:06:17;99805.94;;;3.21;100.00
28588;BME280;15787;49.662;10.162;2023-01-31T13:08:56;99806.75;;;3.22;100.00
28588;BME280;15787;49.662;10.162;2023-01-31T13:11:43;99785.47;;;3.22;100.00
28588;BME280;15787;49.662;10.162;2023-01-31T13:14:20;99780.81;;;3.26;100.00
28588;BME280;15787;49.662;10.162;2023-01-31T13:16:57;99766.28;;;3.29;100.00
28588;BME280;15787;49.662;10.162;2023-01-31T13:19:35;99765.19;;;3.34;100.00
28588;BME280;15787;49.662;10.162;2023-01-31T13:22:16;99758.13;;;3.36;100.00
28588;BME280;15787;49.662;10.162;2023-01-31T13:24:55;99745.56;;;3.39;100.00
28588;BME280;15787;49.662;10.162;2023-01-31T13:27:33;99734.91;;;3.37;100.00
28588;BME280;15787;49.662;10.162;2023-01-31T13:30:18;99740.47;;;3.41;99.61
28588;BME280;15787;49.662;10.162;2023-01-31T13:32:55;99735.03;;;3.44;99.39
28588;BME280;15787;49.662;10.162;2023-01-31T13:35:37;99732.69;;;3.46;99.01
28588;BME280;15787;49.662;10.162;2023-01-31T13:38:16;99737.34;;;3.42;99.06
28588;BME280;15787;49.662;10.162;2023-01-31T13:40:52;99724.84;;;3.48;98.96
28588;BME280;15787;49.662;10.162;2023-01-31T13:43:26;99725.28;;;3.50;98.84
28588;BME280;15787;49.662;10.162;2023-01-31T13:46:02;99719.69;;;3.47;99.04
28588;BME280;15787;49.662;10.162;2023-01-31T13:48:38;99720.91;;;3.49;99.09
28588;BME280;15787;49.662;10.162;2023-01-31T13:51:17;99722.00;;;3.45;99.13